Time,TemperatureF,DewpointF,PressureIn,WindDirection,WindDirectionDegrees,WindSpeedMPH,WindSpeedGustMPH,Humidity,HourlyPrecipIn,Conditions,Clouds,dailyrainin,SolarRadiationWatts/m^2,SoftwareType,DateUTC
2013-09-08 00:02:00,-999.0,-99.9,30.26,SSW,204,2.0,4.0,-999,-99.99,,,-99.99,0.000000,,2013-09-08 04:02:00,
2013-09-08 00:14:00,66.0,66.0,30.26,SSW,204,2.0,4.0,99,0.00,,,0.00,0.000000,,2013-09-08 04:14:00,
2013-09-08 00:43:00,64.0,64.0,30.25,SSW,200,3.0,5.0,99,0.00,,,0.00,0.000000,,2013-09-08 04:43:00,
2013-09-08 00:54:00,64.0,64.0,30.25,SSW,200,3.0,5.0,99,0.00,,,0.00,0.000000,,2013-09-08 04:54:00,
2013-09-08 01:03:00,64.0,64.0,30.25,SSW,200,3.0,5.0,99,0.00,,,0.00,0.000000,,2013-09-08 05:03:00,
2013-09-08 01:13:00,64.0,64.0,30.25,SSW,200,3.0,5.0,99,0.00,,,0.00,0.000000,,2013-09-08 05:13:00,
2013-09-08 01:43:00,64.0,64.0,30.25,SW,217,4.0,6.0,99,0.00,,,0.00,0.000000,,2013-09-08 05:43:00,
2013-09-08 01:52:00,64.0,64.0,30.25,SW,217,4.0,6.0,99,0.00,,,0.00,0.000000,,2013-09-08 05:52:00,
2013-09-08 02:03:00,64.0,64.0,30.25,SW,217,4.0,6.0,99,0.00,,,0.00,0.000000,,2013-09-08 06:03:00,
2013-09-08 02:13:00,64.0,64.0,30.25,SW,217,4.0,6.0,99,0.00,,,0.00,0.000000,,2013-09-08 06:13:00,
2013-09-08 02:42:00,63.0,63.0,30.24,SW,230,3.0,4.0,99,0.00,,,0.00,0.000000,,2013-09-08 06:42:00,
2013-09-08 02:53:00,63.0,63.0,30.24,SW,230,3.0,4.0,99,0.00,,,0.00,0.000000,,2013-09-08 06:53:00,
2013-09-08 03:02:00,63.0,63.0,30.24,SW,230,3.0,4.0,99,0.00,,,0.00,0.000000,,2013-09-08 07:02:00,
2013-09-08 03:12:00,63.0,63.0,30.24,SW,230,3.0,4.0,99,0.00,,,0.00,0.000000,,2013-09-08 07:12:00,
2013-09-08 03:42:00,64.0,64.0,30.23,NNW,345,3.0,5.0,99,0.00,,,0.00,0.000000,,2013-09-08 07:42:00,
2013-09-08 03:52:00,64.0,64.0,30.23,NNW,345,3.0,5.0,99,0.00,,,0.00,0.000000,,2013-09-08 07:52:00,
2013-09-08 04:02:00,64.0,64.0,30.23,NNW,345,3.0,5.0,99,0.00,,,0.00,0.000000,,2013-09-08 08:02:00,
2013-09-08 04:12:00,64.0,64.0,30.23,NNW,345,3.0,5.0,99,0.00,,,0.00,0.000000,,2013-09-08 08:12:00,
2013-09-08 04:42:00,63.0,62.0,30.23,NW,309,1.0,5.0,97,0.00,,,0.00,0.000000,,2013-09-08 08:42:00,
2013-09-08 04:52:00,63.0,62.0,30.23,NW,309,1.0,5.0,97,0.00,,,0.00,0.000000,,2013-09-08 08:52:00,
2013-09-08 05:02:00,63.0,62.0,30.23,NW,309,1.0,5.0,97,0.00,,,0.00,0.000000,,2013-09-08 09:02:00,
2013-09-08 05:12:00,63.0,62.0,30.23,NW,309,1.0,5.0,97,0.00,,,0.00,0.000000,,2013-09-08 09:12:00,
2013-09-08 05:43:00,63.0,62.0,30.22,West,271,3.0,5.0,96,0.00,,,-99.99,0.000000,,2013-09-08 09:43:00,
2013-09-08 05:54:00,63.0,62.0,30.22,West,271,3.0,5.0,96,0.00,,,-99.99,0.000000,,2013-09-08 09:54:00,
2013-09-08 06:03:00,63.0,62.0,30.22,West,271,3.0,5.0,96,0.00,,,-99.99,0.000000,,2013-09-08 10:03:00,
2013-09-08 06:12:00,63.0,62.0,30.22,West,271,3.0,5.0,96,0.00,,,-99.99,0.000000,,2013-09-08 10:12:00,
2013-09-08 06:43:00,64.0,63.0,30.23,WNW,297,4.0,7.0,95,0.00,,,0.00,0.000000,,2013-09-08 10:43:00,
2013-09-08 06:53:00,64.0,63.0,30.23,WNW,297,4.0,7.0,95,0.00,,,0.00,0.000000,,2013-09-08 10:53:00,
2013-09-08 07:02:00,64.0,63.0,30.23,WNW,297,4.0,7.0,95,0.00,,,0.00,0.000000,,2013-09-08 11:02:00,
2013-09-08 07:12:00,64.0,63.0,30.23,WNW,297,4.0,7.0,95,0.00,,,0.00,0.000000,,2013-09-08 11:12:00,
2013-09-08 07:42:00,63.0,61.0,30.24,West,262,2.0,38.0,94,0.00,,,0.00,0.000000,,2013-09-08 11:42:00,
2013-09-08 07:52:00,63.0,61.0,30.24,West,262,2.0,38.0,94,0.00,,,0.00,0.000000,,2013-09-08 11:52:00,
2013-09-08 08:02:00,63.0,61.0,30.24,West,262,2.0,38.0,94,0.00,,,0.00,0.000000,,2013-09-08 12:02:00,
2013-09-08 08:12:00,63.0,61.0,30.24,West,262,2.0,38.0,94,0.00,,,0.00,0.000000,,2013-09-08 12:12:00,
2013-09-08 08:42:00,67.0,63.0,30.24,WNW,289,3.0,6.0,88,0.00,,,0.00,35.000000,,2013-09-08 12:42:00,
2013-09-08 08:52:00,67.0,63.0,30.24,WNW,289,3.0,6.0,88,0.00,,,0.00,35.000000,,2013-09-08 12:52:00,
2013-09-08 09:02:00,67.0,63.0,30.24,WNW,289,3.0,6.0,88,0.00,,,0.00,35.000000,,2013-09-08 13:02:00,
2013-09-08 09:12:00,67.0,63.0,30.24,WNW,289,3.0,6.0,88,0.00,,,0.00,35.000000,,2013-09-08 13:12:00,
2013-09-08 09:52:00,73.0,66.0,30.24,NW,311,5.0,45.0,79,0.00,,,0.00,244.000000,,2013-09-08 13:52:00,
2013-09-08 10:02:00,73.0,66.0,30.24,NW,311,5.0,45.0,79,0.00,,,0.00,244.000000,,2013-09-08 14:02:00,
2013-09-08 10:11:00,73.0,66.0,30.24,NW,311,5.0,45.0,79,0.00,,,0.00,244.000000,,2013-09-08 14:11:00,
2013-09-08 12:14:00,85.0,68.0,30.25,NNW,339,7.0,12.0,56,0.00,,,0.00,638.000000,,2013-09-08 16:14:00,
2013-09-08 12:44:00,86.0,65.0,30.24,North,3,8.0,13.0,50,0.00,,,0.00,788.000000,,2013-09-08 16:44:00,
2013-09-08 12:54:00,86.0,65.0,30.24,North,3,8.0,13.0,50,0.00,,,0.00,788.000000,,2013-09-08 16:54:00,
2013-09-08 13:03:00,86.0,65.0,30.24,North,3,8.0,13.0,50,0.00,,,0.00,788.000000,,2013-09-08 17:03:00,
2013-09-08 13:12:00,86.0,65.0,30.24,North,3,8.0,13.0,50,0.00,,,0.00,788.000000,,2013-09-08 17:12:00,
2013-09-08 14:43:00,89.0,64.0,30.22,ENE,72,4.0,10.0,43,0.00,,,0.00,767.000000,,2013-09-08 18:43:00,
2013-09-08 14:52:00,89.0,64.0,30.22,ENE,72,4.0,10.0,43,0.00,,,0.00,767.000000,,2013-09-08 18:52:00,
2013-09-08 15:02:00,89.0,64.0,30.22,ENE,72,4.0,10.0,43,0.00,,,0.00,767.000000,,2013-09-08 19:02:00,
2013-09-08 15:12:00,89.0,64.0,30.22,ENE,72,4.0,10.0,43,0.00,,,0.00,767.000000,,2013-09-08 19:12:00,
2013-09-08 15:42:00,90.0,64.0,30.21,NNE,25,4.0,8.0,43,0.00,,,0.00,635.000000,,2013-09-08 19:42:00,
2013-09-08 15:52:00,90.0,64.0,30.21,NNE,25,4.0,8.0,43,0.00,,,0.00,635.000000,,2013-09-08 19:52:00,
2013-09-08 16:03:00,90.0,64.0,30.21,NNE,25,4.0,8.0,43,0.00,,,0.00,635.000000,,2013-09-08 20:03:00,
2013-09-08 16:12:00,90.0,64.0,30.21,NNE,25,4.0,8.0,43,0.00,,,0.00,635.000000,,2013-09-08 20:12:00,
2013-09-08 17:44:00,90.0,65.0,30.20,NW,314,4.0,10.0,44,-99.99,,,0.00,524.000000,,2013-09-08 21:44:00,
2013-09-08 17:54:00,90.0,65.0,30.20,NW,314,4.0,10.0,44,-99.99,,,0.00,524.000000,,2013-09-08 21:54:00,
2013-09-08 18:04:00,90.0,65.0,30.20,NW,314,4.0,10.0,44,-99.99,,,0.00,524.000000,,2013-09-08 22:04:00,
2013-09-08 18:13:00,90.0,65.0,30.20,NW,314,4.0,10.0,44,-99.99,,,0.00,524.000000,,2013-09-08 22:13:00,
2013-09-08 18:44:00,87.0,64.0,30.20,NW,309,2.0,8.0,46,0.00,,,0.00,367.000000,,2013-09-08 22:44:00,
2013-09-08 18:53:00,87.0,64.0,30.20,NW,309,2.0,8.0,46,0.00,,,0.00,367.000000,,2013-09-08 22:53:00,
2013-09-08 19:04:00,87.0,64.0,30.20,NW,309,2.0,8.0,46,0.00,,,0.00,367.000000,,2013-09-08 23:04:00,
2013-09-08 19:13:00,87.0,64.0,30.20,NW,309,2.0,8.0,46,0.00,,,0.00,367.000000,,2013-09-08 23:13:00,
2013-09-08 19:42:00,82.0,65.0,30.21,WNW,287,3.0,5.0,57,0.00,,,0.00,151.000000,,2013-09-08 23:42:00,
2013-09-08 19:53:00,82.0,65.0,30.21,WNW,287,3.0,5.0,57,0.00,,,0.00,151.000000,,2013-09-08 23:53:00,
2013-09-08 20:02:00,82.0,65.0,30.21,WNW,287,3.0,5.0,57,0.00,,,0.00,151.000000,,2013-09-09 00:02:00,
2013-09-08 20:12:00,82.0,65.0,30.21,WNW,287,3.0,5.0,57,0.00,,,0.00,151.000000,,2013-09-09 00:12:00,
2013-09-08 20:42:00,75.0,69.0,30.22,NW,316,2.0,3.0,83,0.00,,,0.00,17.000000,,2013-09-09 00:42:00,
2013-09-08 20:52:00,75.0,69.0,30.22,NW,316,2.0,3.0,83,0.00,,,0.00,17.000000,,2013-09-09 00:52:00,
2013-09-08 21:01:00,75.0,69.0,30.22,NW,316,2.0,3.0,83,0.00,,,0.00,17.000000,,2013-09-09 01:01:00,
2013-09-08 21:12:00,75.0,69.0,30.22,NW,316,2.0,3.0,83,0.00,,,0.00,17.000000,,2013-09-09 01:12:00,
2013-09-08 21:42:00,72.0,69.0,30.24,NE,56,3.0,4.0,89,0.00,,,0.00,0.000000,,2013-09-09 01:42:00,
2013-09-08 21:52:00,72.0,69.0,30.24,NE,56,3.0,4.0,89,0.00,,,0.00,0.000000,,2013-09-09 01:52:00,
2013-09-08 22:02:00,72.0,69.0,30.24,NE,56,3.0,4.0,89,0.00,,,0.00,0.000000,,2013-09-09 02:02:00,
2013-09-08 22:11:00,72.0,69.0,30.24,NE,56,3.0,4.0,89,0.00,,,0.00,0.000000,,2013-09-09 02:11:00,
2013-09-08 22:42:00,70.0,68.0,30.25,East,86,2.0,3.0,95,0.00,,,0.00,0.000000,,2013-09-09 02:42:00,
2013-09-08 22:53:00,70.0,68.0,30.25,East,86,2.0,3.0,95,0.00,,,0.00,0.000000,,2013-09-09 02:53:00,
2013-09-08 23:03:00,70.0,68.0,30.25,East,86,2.0,3.0,95,0.00,,,0.00,0.000000,,2013-09-09 03:03:00,
2013-09-08 23:12:00,70.0,68.0,30.25,East,86,2.0,3.0,95,0.00,,,0.00,0.000000,,2013-09-09 03:12:00,
2013-09-08 23:44:00,69.0,69.0,30.26,SE,127,3.0,3.0,99,0.00,,,0.00,0.000000,,2013-09-09 03:44:00,
2013-09-08 23:55:00,69.0,69.0,30.26,SE,127,3.0,3.0,99,0.00,,,0.00,0.000000,,2013-09-09 03:55:00,